Time;durP1;ratioP1;P1;durP2;ratioP2;P2;SDS_P1;SDS_P2;PMS_P1;PMS_P2;Temp;Humidity;BMP_temperature;BMP_pressure;BME280_temperature;BME280_humidity;BME280_pressure;Samples;Min_cycle;Max_cycle;Signal;HPM_P1;HPM_P2
2022/07/25 00:01:53;;;;;;;15.73;14.53;;;;;;;;;;5028561;28;20439;-75
2022/07/25 00:04:20;;;;;;;15.03;13.83;;;;;;;;;;5027006;28;20501;-76
2022/07/25 00:06:47;;;;;;;14.60;13.10;;;;;;;;;;5014227;28;20451;-76
2022/07/25 00:09:15;;;;;;;14.60;13.40;;;;;;;;;;5010484;28;20436;-75
2022/07/25 00:11:43;;;;;;;14.63;13.53;;;;;;;;;;4993932;28;20455;-75
2022/07/25 00:14:10;;;;;;;13.60;12.63;;;;;;;;;;4993917;28;20504;-75
2022/07/25 00:16:37;;;;;;;14.50;13.40;;;;;;;;;;4994303;28;20456;-75
2022/07/25 00:19:05;;;;;;;13.97;12.87;;;;;;;;;;4993839;28;20506;-76
2022/07/25 00:21:32;;;;;;;14.87;13.77;;;;;;;;;;4993969;28;20448;-74
2022/07/25 00:23:59;;;;;;;15.17;14.07;;;;;;;;;;4993582;28;20493;-75
2022/07/25 00:26:26;;;;;;;14.30;13.20;;;;;;;;;;4994139;28;20451;-75
2022/07/25 00:28:54;;;;;;;14.47;13.27;;;;;;;;;;4993807;28;20870;-75
2022/07/25 00:31:21;;;;;;;14.73;13.63;;;;;;;;;;4993650;28;20880;-76
2022/07/25 00:33:48;;;;;;;14.20;13.10;;;;;;;;;;4993130;28;20459;-74
2022/07/25 00:36:15;;;;;;;15.10;13.90;;;;;;;;;;4993727;28;20862;-75
2022/07/25 00:38:42;;;;;;;14.67;13.57;;;;;;;;;;4993452;28;20514;-76
2022/07/25 00:41:10;;;;;;;14.70;13.50;;;;;;;;;;4993513;28;20448;-75
2022/07/25 00:43:37;;;;;;;15.73;14.53;;;;;;;;;;4992830;28;20479;-75
2022/07/25 00:46:05;;;;;;;14.50;13.40;;;;;;;;;;4993226;28;20444;-75
2022/07/25 00:48:32;;;;;;;15.03;13.77;;;;;;;;;;4993419;28;20677;-74
2022/07/25 00:50:59;;;;;;;14.80;13.60;;;;;;;;;;4993733;28;20452;-75
2022/07/25 00:53:26;;;;;;;14.53;13.43;;;;;;;;;;4994377;28;20456;-74
2022/07/25 00:55:53;;;;;;;13.60;12.53;;;;;;;;;;4998482;28;20445;-74
2022/07/25 00:58:20;;;;;;;14.07;12.97;;;;;;;;;;5003079;28;20456;-77
2022/07/25 01:00:48;;;;;;;14.03;13.03;;;;;;;;;;5007139;28;20460;-75
2022/07/25 01:03:17;;;;;;;15.10;13.90;;;;;;;;;;4994460;28;20825;-75
2022/07/25 01:05:44;;;;;;;14.80;13.70;;;;;;;;;;4993007;28;20448;-75
2022/07/25 01:08:11;;;;;;;15.00;13.60;;;;;;;;;;4992826;28;20448;-74
2022/07/25 01:10:38;;;;;;;15.60;14.30;;;;;;;;;;5007742;28;20444;-74
2022/07/25 01:13:05;;;;;;;16.10;14.90;;;;;;;;;;5012046;28;20525;-74
2022/07/25 01:15:32;;;;;;;14.73;13.60;;;;;;;;;;5013821;28;20529;-77
2022/07/25 01:17:59;;;;;;;15.10;13.80;;;;;;;;;;5013737;28;20443;-75
2022/07/25 01:20:28;;;;;;;15.07;13.93;;;;;;;;;;5012734;28;20452;-75
2022/07/25 01:22:56;;;;;;;14.67;13.57;;;;;;;;;;5011807;28;20463;-75
2022/07/25 01:25:23;;;;;;;15.10;13.90;;;;;;;;;;5012047;28;20479;-75
2022/07/25 01:27:52;;;;;;;15.30;14.10;;;;;;;;;;5011916;28;20872;-76
2022/07/25 01:30:19;;;;;;;15.87;14.57;;;;;;;;;;5012153;28;20830;-76
2022/07/25 01:32:46;;;;;;;15.57;14.40;;;;;;;;;;5011872;28;20509;-75
2022/07/25 01:35:14;;;;;;;15.90;14.67;;;;;;;;;;5011824;28;20436;-76
2022/07/25 01:37:43;;;;;;;15.40;14.10;;;;;;;;;;5011907;28;20470;-75
2022/07/25 01:40:10;;;;;;;14.77;13.67;;;;;;;;;;5011946;28;20439;-75
2022/07/25 01:42:37;;;;;;;16.00;14.37;;;;;;;;;;5011181;28;20550;-75
2022/07/25 01:45:05;;;;;;;14.73;13.60;;;;;;;;;;5011958;28;20483;-75
2022/07/25 01:47:32;;;;;;;14.67;13.53;;;;;;;;;;5011853;28;20927;-75
2022/07/25 01:49:59;;;;;;;15.63;14.43;;;;;;;;;;5011828;28;20444;-74
2022/07/25 01:52:26;;;;;;;15.37;14.20;;;;;;;;;;5011644;28;20497;-74
2022/07/25 01:54:54;;;;;;;15.30;14.20;;;;;;;;;;5011534;28;20471;-75
2022/07/25 01:57:21;;;;;;;15.57;14.37;;;;;;;;;;5011939;28;20448;-75
2022/07/25 01:59:48;;;;;;;16.30;14.90;;;;;;;;;;5012029;28;20505;-75
2022/07/25 02:02:15;;;;;;;14.83;13.63;;;;;;;;;;5011751;28;20467;-74
2022/07/25 02:04:42;;;;;;;15.37;14.20;;;;;;;;;;5011281;28;20726;-76
2022/07/25 02:07:09;;;;;;;16.17;14.37;;;;;;;;;;5011445;28;20501;-75
2022/07/25 02:09:36;;;;;;;16.37;15.10;;;;;;;;;;5005281;28;20506;-76
2022/07/25 02:12:06;;;;;;;16.20;14.90;;;;;;;;;;4992401;28;20455;-74
2022/07/25 02:14:33;;;;;;;16.10;14.90;;;;;;;;;;4993555;28;20468;-75
2022/07/25 02:17:00;;;;;;;16.27;15.00;;;;;;;;;;4994321;28;20888;-73
2022/07/25 02:19:27;;;;;;;16.13;14.43;;;;;;;;;;4993279;28;20518;-75
2022/07/25 02:21:54;;;;;;;14.90;13.50;;;;;;;;;;4991703;28;20795;-74
2022/07/25 02:24:21;;;;;;;15.67;14.27;;;;;;;;;;4990764;28;21053;-76
2022/07/25 02:26:48;;;;;;;15.43;14.23;;;;;;;;;;4991524;28;20444;-75
2022/07/25 02:29:16;;;;;;;15.60;14.30;;;;;;;;;;4991330;28;20518;-74
2022/07/25 02:31:43;;;;;;;15.20;14.00;;;;;;;;;;4991583;28;20449;-75
2022/07/25 02:34:10;;;;;;;16.60;15.20;;;;;;;;;;4990817;28;20469;-75
2022/07/25 02:36:37;;;;;;;16.10;14.80;;;;;;;;;;4991044;28;20990;-75
2022/07/25 02:39:05;;;;;;;15.83;14.63;;;;;;;;;;4991327;28;20451;-74
2022/07/25 02:41:32;;;;;;;16.50;14.90;;;;;;;;;;4991326;28;20449;-76
2022/07/25 02:43:59;;;;;;;15.73;14.63;;;;;;;;;;4990731;28;20546;-75
2022/07/25 02:46:27;;;;;;;16.23;14.73;;;;;;;;;;4991187;28;20448;-75
2022/07/25 02:48:54;;;;;;;16.20;14.90;;;;;;;;;;4991080;28;20448;-75
2022/07/25 02:51:21;;;;;;;17.07;15.67;;;;;;;;;;4990940;28;20444;-75
2022/07/25 02:53:48;;;;;;;15.10;14.00;;;;;;;;;;4990350;28;20984;-75
2022/07/25 02:56:15;;;;;;;15.03;13.83;;;;;;;;;;4990956;28;20448;-76
2022/07/25 02:58:42;;;;;;;15.73;14.47;;;;;;;;;;4990778;28;20449;-75
2022/07/25 03:01:10;;;;;;;15.53;14.43;;;;;;;;;;4991239;28;20448;-76
2022/07/25 03:03:38;;;;;;;15.97;14.57;;;;;;;;;;4990554;28;20508;-75
2022/07/25 03:06:06;;;;;;;16.07;14.73;;;;;;;;;;4990836;28;20484;-75
2022/07/25 03:08:33;;;;;;;15.33;14.10;;;;;;;;;;4990986;28;20488;-76
2022/07/25 03:11:00;;;;;;;15.67;14.47;;;;;;;;;;5008647;28;20452;-74
2022/07/25 03:13:27;;;;;;;15.13;13.97;;;;;;;;;;5010152;28;20467;-74
2022/07/25 03:15:54;;;;;;;15.00;13.90;;;;;;;;;;5010556;28;20436;-76
2022/07/25 03:18:21;;;;;;;15.53;14.43;;;;;;;;;;5010261;28;20439;-74
2022/07/25 03:20:49;;;;;;;15.60;14.20;;;;;;;;;;5010628;28;20855;-76
2022/07/25 03:23:16;;;;;;;15.10;13.90;;;;;;;;;;5009897;28;20852;-75
2022/07/25 03:25:43;;;;;;;15.53;14.23;;;;;;;;;;5011736;28;20838;-76
2022/07/25 03:28:10;;;;;;;14.83;13.60;;;;;;;;;;5016824;28;20450;-75
2022/07/25 03:30:37;;;;;;;15.43;14.23;;;;;;;;;;5016765;28;20509;-74
2022/07/25 03:33:04;;;;;;;15.33;14.10;;;;;;;;;;5016269;28;20510;-75
2022/07/25 03:35:31;;;;;;;15.07;13.87;;;;;;;;;;5016920;28;20446;-74
2022/07/25 03:37:59;;;;;;;15.50;14.40;;;;;;;;;;5016850;28;20459;-75
2022/07/25 03:40:26;;;;;;;15.70;14.40;;;;;;;;;;5016920;28;20509;-75
2022/07/25 03:42:53;;;;;;;14.40;13.30;;;;;;;;;;5016477;28;20497;-75
2022/07/25 03:45:21;;;;;;;15.27;13.90;;;;;;;;;;5016280;28;20475;-75
2022/07/25 03:47:48;;;;;;;14.80;13.70;;;;;;;;;;5017192;28;20447;-75
2022/07/25 03:50:15;;;;;;;16.30;15.10;;;;;;;;;;5016700;28;20864;-75
2022/07/25 03:52:42;;;;;;;14.70;13.50;;;;;;;;;;5016489;28;20500;-74
2022/07/25 03:55:11;;;;;;;15.17;14.07;;;;;;;;;;5017206;28;20465;-75
2022/07/25 03:57:38;;;;;;;16.20;14.70;;;;;;;;;;5016667;28;20443;-74
2022/07/25 04:00:06;;;;;;;15.53;14.30;;;;;;;;;;5017421;28;20578;-74
2022/07/25 04:02:33;;;;;;;15.27;14.03;;;;;;;;;;5016813;28;20522;-74
2022/07/25 04:05:00;;;;;;;16.03;14.63;;;;;;;;;;5017901;28;20483;-75
2022/07/25 04:07:27;;;;;;;15.53;14.30;;;;;;;;;;5018398;28;20439;-74
2022/07/25 04:09:54;;;;;;;15.57;14.30;;;;;;;;;;5008267;28;20436;-75
2022/07/25 04:12:23;;;;;;;16.37;14.70;;;;;;;;;;4997667;28;20452;-76
2022/07/25 04:14:51;;;;;;;15.53;14.23;;;;;;;;;;4997305;28;20472;-75
2022/07/25 04:17:18;;;;;;;15.60;14.40;;;;;;;;;;4997510;28;20498;-76
2022/07/25 04:19:45;;;;;;;16.00;14.60;;;;;;;;;;4997127;28;20443;-75
2022/07/25 04:22:12;;;;;;;16.20;14.80;;;;;;;;;;4997446;28;20452;-75
2022/07/25 04:24:39;;;;;;;16.40;14.87;;;;;;;;;;4996891;28;20475;-74
2022/07/25 04:27:06;;;;;;;16.40;14.80;;;;;;;;;;5000875;28;20456;-75
2022/07/25 04:29:34;;;;;;;14.93;13.83;;;;;;;;;;5000830;28;20448;-75
2022/07/25 04:32:01;;;;;;;16.53;14.90;;;;;;;;;;4998242;28;20447;-75
2022/07/25 04:34:28;;;;;;;16.77;15.37;;;;;;;;;;4996762;28;20851;-74
2022/07/25 04:36:55;;;;;;;17.30;15.90;;;;;;;;;;4996147;28;20455;-75
2022/07/25 04:39:22;;;;;;;16.13;14.73;;;;;;;;;;4993259;28;20872;-76
2022/07/25 04:41:50;;;;;;;16.00;14.70;;;;;;;;;;4993817;28;20452;-76
2022/07/25 04:44:17;;;;;;;16.83;15.37;;;;;;;;;;4993580;28;20574;-75
2022/07/25 04:46:45;;;;;;;16.67;15.37;;;;;;;;;;4993781;28;20491;-76
2022/07/25 04:49:12;;;;;;;16.43;15.10;;;;;;;;;;4993793;28;20452;-75
2022/07/25 04:51:39;;;;;;;17.07;15.50;;;;;;;;;;4995633;28;20541;-76
2022/07/25 04:54:08;;;;;;;16.77;15.37;;;;;;;;;;4993442;28;20519;-77
2022/07/25 04:56:35;;;;;;;16.43;15.03;;;;;;;;;;4993957;28;20550;-75
2022/07/25 04:59:02;;;;;;;21.00;19.13;;;;;;;;;;4993697;28;20452;-76
2022/07/25 05:01:29;;;;;;;17.23;15.70;;;;;;;;;;4993857;28;20448;-74
2022/07/25 05:03:57;;;;;;;16.97;15.30;;;;;;;;;;4997155;28;20468;-75
2022/07/25 05:06:24;;;;;;;14.93;13.63;;;;;;;;;;5000588;28;20484;-76
2022/07/25 05:08:51;;;;;;;15.70;14.50;;;;;;;;;;5001044;28;20448;-75
2022/07/25 05:11:18;;;;;;;15.63;14.27;;;;;;;;;;5021806;28;20439;-75
2022/07/25 05:13:45;;;;;;;15.23;13.47;;;;;;;;;;5021435;28;20479;-77
2022/07/25 05:16:12;;;;;;;16.20;14.40;;;;;;;;;;5022854;28;20500;-75
2022/07/25 05:18:39;;;;;;;14.97;13.63;;;;;;;;;;5015787;28;20450;-77
2022/07/25 05:21:10;;;;;;;15.57;14.30;;;;;;;;;;5013351;28;20793;-76
2022/07/25 05:23:37;;;;;;;13.90;12.70;;;;;;;;;;5012698;28;20493;-75
2022/07/25 05:26:04;;;;;;;16.73;13.80;;;;;;;;;;5012685;28;21005;-75
2022/07/25 05:28:31;;;;;;;14.97;13.67;;;;;;;;;;5012963;28;20447;-76
2022/07/25 05:30:58;;;;;;;14.07;12.77;;;;;;;;;;5012761;28;21011;-75
2022/07/25 05:33:25;;;;;;;15.07;13.60;;;;;;;;;;5012323;28;20467;-75
2022/07/25 05:35:52;;;;;;;14.57;13.30;;;;;;;;;;5012553;28;20444;-78
2022/07/25 05:38:21;;;;;;;13.90;12.83;;;;;;;;;;5012566;28;20847;-75
2022/07/25 05:40:50;;;;;;;16.20;14.70;;;;;;;;;;5013050;28;20444;-77
2022/07/25 05:43:17;;;;;;;14.73;13.23;;;;;;;;;;5012793;28;20547;-75
2022/07/25 05:45:46;;;;;;;14.50;13.40;;;;;;;;;;5012683;28;20911;-76
2022/07/25 05:48:13;;;;;;;15.37;14.13;;;;;;;;;;5012568;28;20821;-74
2022/07/25 05:50:40;;;;;;;18.80;17.20;;;;;;;;;;5012411;28;20451;-74
2022/07/25 05:53:07;;;;;;;15.20;13.90;;;;;;;;;;5012652;28;20521;-74
2022/07/25 05:55:35;;;;;;;14.90;13.77;;;;;;;;;;5013434;28;20811;-75
2022/07/25 05:58:02;;;;;;;14.73;13.53;;;;;;;;;;5013641;28;20478;-75
2022/07/25 06:00:29;;;;;;;16.03;14.43;;;;;;;;;;5012809;28;20880;-76
2022/07/25 06:02:58;;;;;;;14.70;13.47;;;;;;;;;;5011678;28;20471;-77
2022/07/25 06:05:25;;;;;;;14.30;13.10;;;;;;;;;;5012066;28;20570;-75
2022/07/25 06:07:52;;;;;;;13.73;12.53;;;;;;;;;;5012286;28;21021;-76
2022/07/25 06:10:19;;;;;;;15.20;13.83;;;;;;;;;;4999851;28;20436;-75
2022/07/25 06:12:48;;;;;;;15.13;13.83;;;;;;;;;;4991740;28;20527;-75
2022/07/25 06:15:15;;;;;;;14.67;13.30;;;;;;;;;;4992045;28;20463;-74
2022/07/25 06:17:42;;;;;;;13.73;12.27;;;;;;;;;;4992127;28;20506;-76
2022/07/25 06:20:11;;;;;;;15.27;14.07;;;;;;;;;;4992174;28;20920;-76
2022/07/25 06:22:39;;;;;;;14.40;13.20;;;;;;;;;;4991119;28;20543;-76
2022/07/25 06:25:06;;;;;;;14.43;13.30;;;;;;;;;;4991447;28;20554;-76
2022/07/25 06:27:34;;;;;;;14.30;13.00;;;;;;;;;;4991420;28;20475;-76
2022/07/25 06:30:03;;;;;;;15.00;13.60;;;;;;;;;;4991208;28;20840;-75
2022/07/25 06:32:30;;;;;;;14.50;13.00;;;;;;;;;;4991225;28;20448;-75
2022/07/25 06:34:57;;;;;;;17.27;15.70;;;;;;;;;;4991123;28;20988;-76
2022/07/25 06:37:25;;;;;;;17.00;15.57;;;;;;;;;;4991863;28;20458;-75
2022/07/25 06:39:52;;;;;;;14.60;13.60;;;;;;;;;;4991453;28;20452;-76
2022/07/25 06:42:19;;;;;;;14.20;13.10;;;;;;;;;;4991584;28;20475;-76
2022/07/25 06:44:46;;;;;;;14.47;13.37;;;;;;;;;;4990999;28;20472;-76
2022/07/25 06:47:14;;;;;;;14.60;13.30;;;;;;;;;;4991699;28;20487;-75
2022/07/25 06:49:42;;;;;;;15.23;13.73;;;;;;;;;;4991189;28;20839;-77
2022/07/25 06:52:09;;;;;;;14.00;12.90;;;;;;;;;;4992590;28;20444;-76
2022/07/25 06:54:36;;;;;;;17.70;14.90;;;;;;;;;;5002751;28;20503;-75
2022/07/25 06:57:04;;;;;;;16.73;15.30;;;;;;;;;;5004288;28;20445;-74
2022/07/25 06:59:32;;;;;;;14.50;13.40;;;;;;;;;;5006367;28;20436;-75
2022/07/25 07:01:59;;;;;;;15.00;13.60;;;;;;;;;;4990977;28;21011;-75
2022/07/25 07:04:27;;;;;;;15.60;14.30;;;;;;;;;;4990985;28;20464;-76
2022/07/25 07:06:54;;;;;;;14.30;13.10;;;;;;;;;;4991486;28;20898;-76
2022/07/25 07:09:21;;;;;;;13.70;12.50;;;;;;;;;;4995483;28;20436;-76
2022/07/25 07:11:48;;;;;;;13.13;12.13;;;;;;;;;;5010584;28;20455;-76
2022/07/25 07:14:15;;;;;;;13.50;12.50;;;;;;;;;;5010319;28;20868;-76
2022/07/25 07:16:42;;;;;;;13.37;11.70;;;;;;;;;;5010465;28;20452;-75
2022/07/25 07:19:10;;;;;;;13.47;12.27;;;;;;;;;;5012349;28;20443;-74
2022/07/25 07:21:39;;;;;;;13.60;12.00;;;;;;;;;;5013482;28;21034;-75
2022/07/25 07:24:06;;;;;;;12.93;11.93;;;;;;;;;;5010726;28;20525;-77
2022/07/25 07:26:33;;;;;;;11.87;10.97;;;;;;;;;;5010650;28;20545;-76
2022/07/25 07:29:01;;;;;;;11.90;11.00;;;;;;;;;;5010421;28;20513;-76
2022/07/25 07:31:28;;;;;;;13.10;12.10;;;;;;;;;;5010454;28;20529;-76
2022/07/25 07:33:55;;;;;;;13.07;12.10;;;;;;;;;;5010207;28;20548;-76
2022/07/25 07:36:22;;;;;;;13.27;12.20;;;;;;;;;;5010205;28;20931;-74
2022/07/25 07:38:51;;;;;;;13.47;12.47;;;;;;;;;;5009873;28;20494;-76
2022/07/25 07:41:19;;;;;;;12.33;11.40;;;;;;;;;;5012109;28;20822;-75
2022/07/25 07:43:46;;;;;;;13.87;12.47;;;;;;;;;;5012072;28;20502;-75
2022/07/25 07:46:13;;;;;;;12.33;11.43;;;;;;;;;;5011969;28;20482;-76
2022/07/25 07:48:40;;;;;;;12.90;11.87;;;;;;;;;;5010321;28;20858;-75
2022/07/25 07:51:07;;;;;;;13.30;12.40;;;;;;;;;;5009930;28;20458;-76
2022/07/25 07:56:20;;;;;;;12.63;11.77;;;;;;;;;;5010294;28;20473;-75
2022/07/25 07:58:47;;;;;;;12.57;11.67;;;;;;;;;;5009980;28;20998;-75
2022/07/25 08:01:15;;;;;;;13.17;12.27;;;;;;;;;;5010514;28;20530;-75
2022/07/25 08:03:42;;;;;;;13.67;11.10;;;;;;;;;;5009695;28;20455;-75
2022/07/25 08:06:09;;;;;;;13.03;12.03;;;;;;;;;;5010259;28;20479;-75
2022/07/25 08:08:36;;;;;;;13.50;12.53;;;;;;;;;;5009989;28;20877;-76
2022/07/25 08:11:03;;;;;;;11.87;11.10;;;;;;;;;;4991800;28;20502;-75
2022/07/25 08:13:33;;;;;;;12.40;11.50;;;;;;;;;;4993261;28;20882;-75
2022/07/25 08:16:02;;;;;;;12.17;11.37;;;;;;;;;;4994211;28;20479;-75
2022/07/25 08:18:31;;;;;;;12.40;11.17;;;;;;;;;;4994263;28;20495;-76
2022/07/25 08:20:59;;;;;;;13.83;12.80;;;;;;;;;;4994043;28;20452;-75
2022/07/25 08:23:26;;;;;;;12.93;12.03;;;;;;;;;;4993664;28;20964;-76
2022/07/25 08:25:53;;;;;;;12.83;11.93;;;;;;;;;;4994277;28;20487;-77
2022/07/25 08:28:21;;;;;;;13.40;12.40;;;;;;;;;;4993937;28;21068;-78
2022/07/25 08:30:49;;;;;;;12.63;11.63;;;;;;;;;;4993892;28;20444;-75
2022/07/25 08:33:16;;;;;;;12.10;11.13;;;;;;;;;;4993330;28;20486;-76
2022/07/25 08:35:46;;;;;;;13.47;12.53;;;;;;;;;;4994155;28;20436;-76
2022/07/25 08:38:13;;;;;;;13.00;12.10;;;;;;;;;;4993993;28;21205;-75
2022/07/25 08:40:40;;;;;;;12.90;11.90;;;;;;;;;;4993886;28;20863;-76
2022/07/25 08:43:11;;;;;;;12.43;11.57;;;;;;;;;;4994849;28;20532;-75
2022/07/25 08:45:42;;;;;;;13.33;12.30;;;;;;;;;;4994289;28;20535;-74
2022/07/25 08:48:10;;;;;;;12.70;11.90;;;;;;;;;;4994023;28;20498;-75
2022/07/25 08:50:38;;;;;;;10.87;9.97;;;;;;;;;;4994723;28;20534;-75
2022/07/25 08:53:06;;;;;;;10.90;10.03;;;;;;;;;;4994152;28;20495;-76
2022/07/25 08:55:33;;;;;;;10.63;9.93;;;;;;;;;;4994379;28;20458;-75
2022/07/25 08:58:00;;;;;;;11.47;10.67;;;;;;;;;;4993287;28;20444;-75
2022/07/25 09:00:28;;;;;;;11.93;11.13;;;;;;;;;;4993074;28;20863;-76
2022/07/25 09:02:56;;;;;;;10.77;10.07;;;;;;;;;;4993175;28;21220;-75
2022/07/25 09:05:25;;;;;;;12.13;11.23;;;;;;;;;;4993424;28;20566;-75
2022/07/25 09:07:53;;;;;;;12.43;11.53;;;;;;;;;;4993035;28;20480;-78
2022/07/25 09:10:22;;;;;;;12.87;11.83;;;;;;;;;;5004969;28;20458;-75
2022/07/25 09:12:52;;;;;;;11.67;10.77;;;;;;;;;;5012632;28;20457;-76
2022/07/25 09:15:24;;;;;;;11.87;10.87;;;;;;;;;;5013013;28;20455;-76
2022/07/25 09:17:51;;;;;;;9.90;9.23;;;;;;;;;;5013322;28;20447;-76
2022/07/25 09:20:18;;;;;;;10.17;9.37;;;;;;;;;;5013771;28;20501;-76
2022/07/25 09:22:47;;;;;;;10.30;9.40;;;;;;;;;;5012319;28;20447;-76
2022/07/25 09:25:23;;;;;;;10.40;8.90;;;;;;;;;;5012687;28;20861;-75
2022/07/25 09:27:51;;;;;;;9.50;8.60;;;;;;;;;;5013043;28;20552;-77
2022/07/25 09:30:18;;;;;;;10.67;9.67;;;;;;;;;;5012941;28;20497;-76
2022/07/25 09:32:45;;;;;;;9.90;9.30;;;;;;;;;;5012266;28;20439;-75
2022/07/25 09:35:12;;;;;;;11.17;10.17;;;;;;;;;;5012168;28;20497;-76
2022/07/25 09:37:39;;;;;;;10.33;9.73;;;;;;;;;;5012658;28;20453;-76
2022/07/25 09:40:14;;;;;;;10.17;9.47;;;;;;;;;;5012706;28;20506;-76
2022/07/25 09:42:44;;;;;;;9.97;9.37;;;;;;;;;;5013278;28;20534;-77
2022/07/25 09:45:13;;;;;;;9.90;9.10;;;;;;;;;;5020517;28;20455;-76
2022/07/25 09:47:51;;;;;;;10.23;9.53;;;;;;;;;;5019573;28;20476;-75
2022/07/25 09:50:18;;;;;;;9.90;9.20;;;;;;;;;;5011612;28;20525;-76
2022/07/25 09:52:45;;;;;;;9.37;8.80;;;;;;;;;;5011288;28;20458;-76
2022/07/25 09:55:15;;;;;;;10.37;9.67;;;;;;;;;;5011982;28;20525;-76
2022/07/25 09:57:43;;;;;;;11.83;10.80;;;;;;;;;;5011565;28;20447;-76
2022/07/25 10:00:11;;;;;;;12.33;10.70;;;;;;;;;;5011485;28;20950;-77
2022/07/25 10:02:41;;;;;;;10.10;9.30;;;;;;;;;;5010990;28;20452;-76
2022/07/25 10:05:12;;;;;;;10.40;9.70;;;;;;;;;;5011563;28;20509;-76
2022/07/25 10:07:40;;;;;;;11.67;10.70;;;;;;;;;;5011660;28;20494;-76
2022/07/25 10:10:07;;;;;;;10.83;10.03;;;;;;;;;;5000188;28;20806;-76
2022/07/25 10:12:37;;;;;;;10.57;9.87;;;;;;;;;;4990924;28;20536;-76
2022/07/25 10:15:05;;;;;;;11.57;10.40;;;;;;;;;;4991147;28;20490;-75
2022/07/25 10:17:32;;;;;;;14.30;10.67;;;;;;;;;;4991775;28;20452;-76
2022/07/25 10:20:00;;;;;;;11.67;10.87;;;;;;;;;;4991608;28;20448;-76
2022/07/25 10:22:36;;;;;;;11.07;10.17;;;;;;;;;;4991311;28;20452;-76
2022/07/25 10:25:08;;;;;;;11.50;10.50;;;;;;;;;;4991837;28;20448;-75
2022/07/25 10:27:42;;;;;;;10.80;10.00;;;;;;;;;;4991270;28;20480;-76
2022/07/25 10:30:11;;;;;;;10.20;9.50;;;;;;;;;;4991726;28;20452;-75
2022/07/25 10:32:38;;;;;;;10.97;10.17;;;;;;;;;;4993400;28;20819;-77
2022/07/25 10:35:12;;;;;;;10.50;9.80;;;;;;;;;;4993605;28;20494;-76
2022/07/25 10:37:40;;;;;;;10.13;9.33;;;;;;;;;;4991229;28;20931;-75
2022/07/25 10:40:08;;;;;;;9.83;9.10;;;;;;;;;;4991713;28;20460;-76
2022/07/25 10:42:37;;;;;;;9.60;9.00;;;;;;;;;;4991541;28;20455;-76
2022/07/25 10:45:08;;;;;;;9.17;8.47;;;;;;;;;;4993369;28;20502;-76
2022/07/25 10:47:37;;;;;;;9.70;8.90;;;;;;;;;;4993829;28;20923;-75
2022/07/25 10:50:05;;;;;;;9.90;9.20;;;;;;;;;;4994774;28;20467;-77
2022/07/25 10:52:32;;;;;;;10.03;9.43;;;;;;;;;;4994603;28;20484;-75
2022/07/25 10:55:00;;;;;;;9.53;8.93;;;;;;;;;;4996564;28;20518;-76
2022/07/25 10:57:27;;;;;;;9.33;8.60;;;;;;;;;;4999017;28;20904;-76
2022/07/25 11:00:04;;;;;;;9.43;8.80;;;;;;;;;;4998982;28;20503;-76
2022/07/25 11:02:31;;;;;;;9.93;9.30;;;;;;;;;;4997082;28;20452;-75
2022/07/25 11:04:59;;;;;;;9.17;8.57;;;;;;;;;;4994526;28;20470;-76
2022/07/25 11:07:27;;;;;;;9.17;8.50;;;;;;;;;;4993291;28;20539;-79
2022/07/25 11:09:57;;;;;;;8.67;7.97;;;;;;;;;;5003114;28;20439;-77
2022/07/25 11:12:24;;;;;;;8.90;8.30;;;;;;;;;;5014279;28;20542;-77
2022/07/25 11:14:51;;;;;;;8.50;8.00;;;;;;;;;;5012906;28;20494;-77
2022/07/25 11:17:21;;;;;;;9.40;8.50;;;;;;;;;;5012385;28;20478;-77
2022/07/25 11:19:54;;;;;;;9.60;9.00;;;;;;;;;;5012333;28;20451;-76
2022/07/25 11:22:21;;;;;;;8.97;8.37;;;;;;;;;;5012694;28;20439;-77
2022/07/25 11:24:48;;;;;;;9.73;7.67;;;;;;;;;;5011858;28;20537;-76
2022/07/25 11:27:21;;;;;;;7.87;7.37;;;;;;;;;;5011717;28;20536;-76
2022/07/25 11:29:48;;;;;;;7.70;7.10;;;;;;;;;;5012813;28;20455;-76
2022/07/25 11:32:15;;;;;;;12.50;7.90;;;;;;;;;;5011403;28;20482;-76
2022/07/25 11:34:44;;;;;;;7.27;6.73;;;;;;;;;;5010807;28;20545;-75
2022/07/25 11:37:12;;;;;;;8.30;7.50;;;;;;;;;;5010919;28;20494;-77
2022/07/25 11:39:41;;;;;;;7.80;7.23;;;;;;;;;;5010507;28;20528;-75
2022/07/25 11:42:09;;;;;;;8.47;7.97;;;;;;;;;;5010432;28;20455;-76
2022/07/25 11:44:38;;;;;;;8.10;7.60;;;;;;;;;;5010870;28;20470;-78
2022/07/25 11:47:05;;;;;;;8.20;7.60;;;;;;;;;;5016253;28;20471;-76
2022/07/25 11:49:33;;;;;;;7.40;7.00;;;;;;;;;;5019569;28;20451;-76
2022/07/25 11:52:01;;;;;;;7.93;7.30;;;;;;;;;;5016558;28;20443;-76
2022/07/25 11:54:28;;;;;;;7.10;6.67;;;;;;;;;;5015907;28;20471;-77
2022/07/25 11:56:55;;;;;;;8.60;8.00;;;;;;;;;;5014642;28;20458;-77
2022/07/25 11:59:22;;;;;;;7.93;7.33;;;;;;;;;;5014244;28;20493;-77
2022/07/25 12:01:50;;;;;;;8.60;8.00;;;;;;;;;;5014449;28;20501;-76
2022/07/25 12:04:17;;;;;;;7.43;7.00;;;;;;;;;;5014268;28;20475;-76
2022/07/25 12:06:45;;;;;;;7.97;7.40;;;;;;;;;;5014500;28;20485;-76
2022/07/25 12:09:17;;;;;;;7.77;7.30;;;;;;;;;;5011530;28;20514;-76
2022/07/25 12:11:44;;;;;;;7.70;7.13;;;;;;;;;;4995715;28;20859;-77
2022/07/25 12:14:12;;;;;;;7.30;6.63;;;;;;;;;;4994749;28;20475;-76
2022/07/25 12:16:39;;;;;;;8.33;7.63;;;;;;;;;;4994607;28;20441;-77
2022/07/25 12:19:09;;;;;;;8.17;7.67;;;;;;;;;;4994689;28;20451;-77
2022/07/25 12:21:36;;;;;;;6.90;6.50;;;;;;;;;;4996663;28;20538;-76
2022/07/25 12:24:03;;;;;;;7.77;7.30;;;;;;;;;;4996244;28;20476;-76
2022/07/25 12:26:32;;;;;;;7.33;6.80;;;;;;;;;;4996261;28;20444;-76
2022/07/25 12:28:59;;;;;;;7.60;7.10;;;;;;;;;;4994553;28;20484;-76
2022/07/25 12:31:27;;;;;;;7.50;6.90;;;;;;;;;;4994470;28;20452;-76
2022/07/25 12:33:54;;;;;;;7.40;6.87;;;;;;;;;;4994731;28;20530;-76
2022/07/25 12:36:21;;;;;;;7.70;7.20;;;;;;;;;;4994524;28;20943;-76
2022/07/25 12:38:48;;;;;;;8.20;7.03;;;;;;;;;;4993845;28;20836;-76
2022/07/25 12:41:16;;;;;;;7.43;6.93;;;;;;;;;;4993672;28;20506;-76
2022/07/25 12:43:44;;;;;;;7.47;6.97;;;;;;;;;;4993779;28;20464;-75
2022/07/25 12:46:11;;;;;;;7.70;7.10;;;;;;;;;;4993735;28;20479;-75
2022/07/25 12:48:38;;;;;;;7.77;7.27;;;;;;;;;;4993842;28;20483;-76
2022/07/25 12:51:05;;;;;;;8.53;7.60;;;;;;;;;;4993652;28;20443;-75
2022/07/25 12:53:32;;;;;;;7.63;7.03;;;;;;;;;;4993847;28;21103;-75
2022/07/25 12:55:59;;;;;;;7.80;7.20;;;;;;;;;;4993455;28;20440;-75
2022/07/25 12:58:26;;;;;;;9.07;7.33;;;;;;;;;;4992410;28;20448;-75
2022/07/25 13:00:55;;;;;;;8.07;7.30;;;;;;;;;;4993504;28;20448;-77
2022/07/25 13:03:22;;;;;;;8.47;7.80;;;;;;;;;;4993134;28;20461;-74
2022/07/25 13:05:49;;;;;;;8.60;8.00;;;;;;;;;;4993250;28;20848;-74
2022/07/25 13:08:16;;;;;;;8.10;7.60;;;;;;;;;;4992962;28;20507;-75
2022/07/25 13:10:43;;;;;;;8.13;7.30;;;;;;;;;;5008487;28;20454;-76
2022/07/25 13:13:10;;;;;;;7.90;7.40;;;;;;;;;;5012056;28;20471;-74
2022/07/25 13:15:37;;;;;;;8.60;7.97;;;;;;;;;;5012232;28;20509;-75
2022/07/25 13:18:06;;;;;;;10.33;8.67;;;;;;;;;;5011925;28;20869;-75
2022/07/25 13:20:34;;;;;;;8.20;7.60;;;;;;;;;;5012014;28;20440;-75
2022/07/25 13:23:01;;;;;;;8.40;7.67;;;;;;;;;;5011944;28;21033;-75
2022/07/25 13:25:30;;;;;;;7.73;7.23;;;;;;;;;;5012384;28;20470;-76
2022/07/25 13:27:57;;;;;;;8.40;7.87;;;;;;;;;;5012147;28;20919;-75
2022/07/25 13:30:24;;;;;;;8.80;8.00;;;;;;;;;;5012067;28;20451;-74
2022/07/25 13:32:51;;;;;;;8.33;7.83;;;;;;;;;;5011979;28;20490;-76
2022/07/25 13:35:19;;;;;;;7.40;6.90;;;;;;;;;;5012237;28;20915;-74
2022/07/25 13:37:46;;;;;;;7.90;7.17;;;;;;;;;;5012755;28;20523;-75
2022/07/25 13:40:13;;;;;;;7.80;7.27;;;;;;;;;;5012695;28;20501;-75
2022/07/25 13:42:40;;;;;;;7.47;6.87;;;;;;;;;;5012115;28;20451;-74
2022/07/25 13:45:08;;;;;;;7.23;6.53;;;;;;;;;;5012847;28;20444;-73
2022/07/25 13:47:35;;;;;;;7.10;6.70;;;;;;;;;;5012844;28;20908;-75
2022/07/25 13:50:02;;;;;;;6.80;6.40;;;;;;;;;;5011899;28;20943;-76
2022/07/25 13:52:31;;;;;;;7.53;7.13;;;;;;;;;;5011664;28;20447;-74
2022/07/25 13:54:58;;;;;;;7.70;7.00;;;;;;;;;;5011512;28;20550;-74
2022/07/25 13:57:25;;;;;;;7.60;7.10;;;;;;;;;;5011461;28;20453;-76
2022/07/25 13:59:52;;;;;;;8.60;7.00;;;;;;;;;;5011632;28;20876;-76
2022/07/25 14:02:19;;;;;;;8.17;7.57;;;;;;;;;;5011871;28;20447;-75
2022/07/25 14:04:46;;;;;;;6.90;6.50;;;;;;;;;;5011842;28;20882;-75
2022/07/25 14:07:14;;;;;;;7.73;7.33;;;;;;;;;;5016491;28;20439;-75
2022/07/25 14:09:42;;;;;;;7.93;7.33;;;;;;;;;;5008117;28;20533;-75
2022/07/25 14:12:09;;;;;;;8.30;7.57;;;;;;;;;;4994602;28;20448;-76
2022/07/25 14:14:36;;;;;;;8.00;7.40;;;;;;;;;;4993649;28;20526;-75
2022/07/25 14:17:03;;;;;;;8.67;7.97;;;;;;;;;;4994148;28;20452;-76
2022/07/25 14:19:30;;;;;;;9.00;8.30;;;;;;;;;;4993363;28;20436;-75
2022/07/25 14:21:58;;;;;;;8.77;8.10;;;;;;;;;;4993372;28;20448;-75
2022/07/25 14:24:25;;;;;;;9.03;8.03;;;;;;;;;;4991932;28;20460;-77
2022/07/25 14:26:53;;;;;;;9.30;8.67;;;;;;;;;;4991654;28;20444;-75
2022/07/25 14:29:21;;;;;;;8.87;8.27;;;;;;;;;;4991853;28;21060;-75
2022/07/25 14:31:48;;;;;;;9.37;8.57;;;;;;;;;;4991446;28;20856;-75